This is the latest recevied weather packets stored in our database for station/object KF4ERV-4. If no packets are shown the sender has not sent any weather packets the latest 10 day(s).
| Time | Temp. | Humidity | Pressure | Rain* | Wind** | Luminosity | Snow |
|---|---|---|---|---|---|---|---|
| 1778169431 | 15° C | 43% | 1017 hPa | 0 mm | - | - | - |
| 1778169408 | 15.56° C | 40% | 1017 hPa | 0 mm | - | - | - |
| 1778169299 | 15.56° C | 40% | 1017 hPa | 0 mm | - | - | - |
| 1778169117 | 16.11° C | 40% | 1017 hPa | 0 mm | - | - | - |
| 1778169001 | 16.11° C | 40% | 1017 hPa | 0 mm | - | - | - |
| 1778168828 | 15.56° C | 41% | 1017 hPa | 0 mm | - | - | - |
| 1778168704 | 15.56° C | 41% | 1017 hPa | 0 mm | - | - | - |
| 1778168537 | 15° C | 42% | 1017 hPa | 0 mm | - | - | - |
| 1778168396 | 15° C | 42% | 1017 hPa | 0 mm | - | - | - |
| 1778168249 | 15° C | 43% | 1017 hPa | 0 mm | - | - | - |
| 1778168099 | 15° C | 43% | 1017 hPa | 0 mm | - | - | - |
| 1778167958 | 15° C | 44% | 1017 hPa | 0 mm | - | - | - |
| 1778167827 | 14.44° C | 48% | 1017 hPa | 0 mm | - | - | - |
| 1778167803 | 15° C | 44% | 1017 hPa | 0 mm | - | - | - |
| 1778167667 | 15° C | 45% | 1017 hPa | 0 mm | - | - | - |
| 1778167492 | 15° C | 45% | 1017 hPa | 0 mm | - | - | - |
| 1778167450 | 13.89° C | 49% | 1017 hPa | 0 mm | - | - | - |
| 1778167196 | 14.44° C | 48% | 1017 hPa | 0 mm | - | - | - |
| 1778167103 | 13.89° C | 49% | 1017 hPa | 0 mm | - | - | - |
| 1778166996 | 13.89° C | 49% | 1017 hPa | 0 mm | - | - | - |
| 1778166901 | 13.89° C | 49% | 1017 hPa | 0 mm | - | - | - |
| 1778166798 | 13.89° C | 50% | 1017 hPa | 0 mm | - | - | - |
| 1778166603 | 13.89° C | 50% | 1017 hPa | 0 mm | - | - | - |
| 1778166547 | 13.33° C | 54% | 1017 hPa | 0 mm | - | - | - |
| 1778166507 | 13.33° C | 54% | 1017 hPa | 0 mm | - | - | - |
* Rain latest hour (hover to see other rain measurements)
** Current wind speed in m/s (hover to see current wind gust speed)